Time;durP1;ratioP1;P1;durP2;ratioP2;P2;SDS_P1;SDS_P2;PMS_P1;PMS_P2;Temp;Humidity;BMP_temperature;BMP_pressure;BME280_temperature;BME280_humidity;BME280_pressure;Samples;Min_cycle;Max_cycle;Signal;HPM_P1;HPM_P2
2021/09/28 00:00:37;;;;;;;8.82;1.08;;;;;;;;;;5134118;27;20030;-63
2021/09/28 00:03:03;;;;;;;7.00;1.00;;;;;;;;;;5134203;27;20102;-63
2021/09/28 00:05:29;;;;;;;10.70;1.27;;;;;;;;;;5133949;27;20124;-63
2021/09/28 00:07:56;;;;;;;4.40;0.90;;;;;;;;;;5133705;27;20019;-63
2021/09/28 00:10:22;;;;;;;3.40;0.80;;;;;;;;;;5134051;27;20027;-63
2021/09/28 00:12:48;;;;;;;7.75;1.13;;;;;;;;;;5085629;27;20053;-63
2021/09/28 00:15:14;;;;;;;16.67;1.10;;;;;;;;;;5030360;28;20022;-63
2021/09/28 00:17:40;;;;;;;4.35;1.05;;;;;;;;;;5030337;28;20033;-63
2021/09/28 00:20:08;;;;;;;3.50;1.02;;;;;;;;;;5029908;28;20014;-63
2021/09/28 00:22:34;;;;;;;5.35;1.00;;;;;;;;;;5029850;28;20025;-63
2021/09/28 00:25:00;;;;;;;9.05;1.30;;;;;;;;;;5029782;28;20045;-63
2021/09/28 00:27:26;;;;;;;5.68;1.00;;;;;;;;;;5029919;28;20102;-63
2021/09/28 00:29:52;;;;;;;3.53;1.08;;;;;;;;;;5029780;28;20053;-63
2021/09/28 00:32:18;;;;;;;5.47;1.08;;;;;;;;;;5029227;28;20091;-63
2021/09/28 00:34:45;;;;;;;4.75;1.00;;;;;;;;;;5029702;28;20040;-63
2021/09/28 00:37:11;;;;;;;6.70;1.10;;;;;;;;;;5029764;28;20057;-63
2021/09/28 00:39:37;;;;;;;9.18;1.10;;;;;;;;;;5028647;28;20021;-63
2021/09/28 00:42:03;;;;;;;4.82;1.30;;;;;;;;;;5127215;28;20034;-63
2021/09/28 00:44:33;;;;;;;7.32;1.17;;;;;;;;;;5133936;28;20019;-63
2021/09/28 00:46:59;;;;;;;6.13;1.00;;;;;;;;;;5133981;28;20106;-63
2021/09/28 00:49:25;;;;;;;4.22;1.15;;;;;;;;;;5115527;28;20457;-64
2021/09/28 00:51:52;;;;;;;3.65;1.10;;;;;;;;;;5133351;28;20038;-63
2021/09/28 00:54:19;;;;;;;4.68;1.00;;;;;;;;;;5098275;28;20020;-63
2021/09/28 00:56:45;;;;;;;4.15;1.00;;;;;;;;;;5133370;28;20027;-63
2021/09/28 00:59:12;;;;;;;4.15;1.10;;;;;;;;;;5133271;28;20096;-64
2021/09/28 01:01:38;;;;;;;5.90;1.00;;;;;;;;;;5114987;28;20019;-63
2021/09/28 01:04:06;;;;;;;6.55;0.80;;;;;;;;;;5115122;28;20042;-63
2021/09/28 01:06:32;;;;;;;4.93;1.10;;;;;;;;;;5108239;28;20037;-63
2021/09/28 01:09:00;;;;;;;4.38;1.20;;;;;;;;;;5087262;28;20117;-63
2021/09/28 01:11:26;;;;;;;5.82;1.20;;;;;;;;;;5029313;28;20033;-64
2021/09/28 01:13:52;;;;;;;5.93;1.08;;;;;;;;;;5029172;28;20037;-63
2021/09/28 01:16:18;;;;;;;2.60;1.17;;;;;;;;;;5029314;28;20021;-63
2021/09/28 01:18:44;;;;;;;10.57;0.98;;;;;;;;;;5097750;28;20505;-63
2021/09/28 01:21:14;;;;;;;5.30;1.05;;;;;;;;;;5029512;28;20029;-62
2021/09/28 01:23:44;;;;;;;3.33;0.90;;;;;;;;;;5025327;28;20026;-62
2021/09/28 01:26:16;;;;;;;3.05;0.82;;;;;;;;;;5009219;28;20607;-62
2021/09/28 01:28:42;;;;;;;8.63;1.10;;;;;;;;;;5009588;28;20026;-63
2021/09/28 01:31:08;;;;;;;4.72;0.95;;;;;;;;;;5009128;28;20033;-63
2021/09/28 01:33:34;;;;;;;3.45;0.90;;;;;;;;;;5009384;28;20427;-63
2021/09/28 01:36:00;;;;;;;5.32;0.90;;;;;;;;;;5009245;28;20057;-63
2021/09/28 01:38:26;;;;;;;4.97;1.30;;;;;;;;;;5077026;28;20125;-63
2021/09/28 01:40:52;;;;;;;6.43;1.40;;;;;;;;;;5064361;27;20110;-63
2021/09/28 01:43:20;;;;;;;5.85;1.10;;;;;;;;;;5116075;27;20038;-64
2021/09/28 01:45:47;;;;;;;7.65;1.13;;;;;;;;;;5118195;27;20110;-63
2021/09/28 01:48:14;;;;;;;3.13;1.10;;;;;;;;;;5118252;27;20115;-63
2021/09/28 01:50:40;;;;;;;8.32;1.10;;;;;;;;;;5136284;27;20027;-62
2021/09/28 01:53:06;;;;;;;3.83;0.98;;;;;;;;;;5136350;27;20031;-63
2021/09/28 01:55:32;;;;;;;6.28;1.10;;;;;;;;;;5136321;27;20058;-63
2021/09/28 01:57:59;;;;;;;7.68;1.10;;;;;;;;;;5136396;27;20421;-63
2021/09/28 02:00:26;;;;;;;7.95;1.25;;;;;;;;;;5117939;27;20020;-63
2021/09/28 02:02:53;;;;;;;8.38;1.27;;;;;;;;;;5117901;27;20023;-63
2021/09/28 02:05:20;;;;;;;9.45;1.27;;;;;;;;;;5117864;27;20370;-63
2021/09/28 02:07:46;;;;;;;3.97;1.00;;;;;;;;;;5136669;27;20015;-63
2021/09/28 02:10:12;;;;;;;6.80;1.40;;;;;;;;;;5022973;27;20065;-63
2021/09/28 02:12:39;;;;;;;7.45;1.17;;;;;;;;;;5012149;28;20087;-63
2021/09/28 02:15:05;;;;;;;6.82;1.13;;;;;;;;;;5080446;28;20048;-63
2021/09/28 02:17:31;;;;;;;6.30;1.15;;;;;;;;;;5011866;28;20107;-62
2021/09/28 02:19:57;;;;;;;5.88;1.27;;;;;;;;;;5011974;28;20048;-63
2021/09/28 02:22:23;;;;;;;4.82;1.10;;;;;;;;;;5012192;28;20525;-63
2021/09/28 02:24:49;;;;;;;3.97;1.23;;;;;;;;;;5011688;28;20064;-64
2021/09/28 02:27:16;;;;;;;5.50;1.13;;;;;;;;;;5079863;28;20022;-63
2021/09/28 02:29:42;;;;;;;6.75;1.23;;;;;;;;;;5012046;28;20490;-63
2021/09/28 02:32:08;;;;;;;6.68;1.60;;;;;;;;;;5011809;28;20522;-63
2021/09/28 02:34:35;;;;;;;1.90;0.90;;;;;;;;;;5011561;28;20379;-63
2021/09/28 02:37:01;;;;;;;4.80;1.17;;;;;;;;;;5011532;28;20042;-63
2021/09/28 02:39:30;;;;;;;8.60;1.30;;;;;;;;;;5011596;28;20025;-63
2021/09/28 02:42:00;;;;;;;4.13;1.08;;;;;;;;;;5121966;27;20019;-63
2021/09/28 02:44:26;;;;;;;5.50;1.17;;;;;;;;;;5117166;27;20023;-63
2021/09/28 02:46:52;;;;;;;5.75;1.30;;;;;;;;;;5117089;27;20035;-63
2021/09/28 02:49:18;;;;;;;3.10;1.00;;;;;;;;;;5135302;27;20026;-63
2021/09/28 02:51:44;;;;;;;3.45;1.20;;;;;;;;;;5135305;27;20035;-63
2021/09/28 02:54:12;;;;;;;13.75;1.17;;;;;;;;;;5083854;27;20064;-63
2021/09/28 02:56:38;;;;;;;4.43;0.90;;;;;;;;;;5031042;28;20104;-63
2021/09/28 02:59:04;;;;;;;4.30;1.13;;;;;;;;;;5099399;28;20070;-63
2021/09/28 03:01:30;;;;;;;12.65;1.15;;;;;;;;;;5030964;28;20037;-63
2021/09/28 03:03:56;;;;;;;6.53;1.38;;;;;;;;;;5099318;28;20025;-63
2021/09/28 03:06:22;;;;;;;5.32;1.25;;;;;;;;;;5099335;28;20108;-64
2021/09/28 03:08:48;;;;;;;7.07;1.02;;;;;;;;;;5031051;28;20108;-63
2021/09/28 03:11:14;;;;;;;4.00;1.15;;;;;;;;;;5030701;28;20033;-62
2021/09/28 03:13:40;;;;;;;6.22;1.20;;;;;;;;;;5031183;28;20108;-63
2021/09/28 03:16:06;;;;;;;7.13;1.30;;;;;;;;;;5030904;28;20415;-63
2021/09/28 03:18:32;;;;;;;4.55;1.45;;;;;;;;;;5030933;28;20078;-63
2021/09/28 03:20:58;;;;;;;6.97;1.30;;;;;;;;;;5030864;28;20029;-63
2021/09/28 03:23:24;;;;;;;5.13;1.40;;;;;;;;;;5030741;28;20029;-63
2021/09/28 03:25:51;;;;;;;6.75;1.50;;;;;;;;;;5029543;28;20056;-63
2021/09/28 03:28:17;;;;;;;5.50;1.40;;;;;;;;;;5099170;28;20029;-63
2021/09/28 03:30:44;;;;;;;8.95;1.17;;;;;;;;;;5099187;28;20066;-63
2021/09/28 03:33:10;;;;;;;6.30;1.00;;;;;;;;;;5098723;28;20041;-63
2021/09/28 03:35:36;;;;;;;5.15;1.20;;;;;;;;;;5030689;28;20029;-63
2021/09/28 03:38:02;;;;;;;5.72;1.40;;;;;;;;;;5030636;28;20037;-63
2021/09/28 03:40:29;;;;;;;4.15;1.08;;;;;;;;;;5030404;28;20088;-63
2021/09/28 03:42:56;;;;;;;3.83;1.10;;;;;;;;;;5030378;28;20017;-63
2021/09/28 03:45:22;;;;;;;5.47;0.95;;;;;;;;;;5098497;28;20038;-64
2021/09/28 03:47:49;;;;;;;3.80;1.40;;;;;;;;;;5098632;28;20017;-64
2021/09/28 03:50:15;;;;;;;5.80;1.10;;;;;;;;;;5029251;27;20469;-64
2021/09/28 03:52:41;;;;;;;2.53;1.00;;;;;;;;;;5134152;27;20464;-64
2021/09/28 03:55:07;;;;;;;4.78;1.30;;;;;;;;;;5115805;27;20110;-64
2021/09/28 03:57:33;;;;;;;6.38;1.20;;;;;;;;;;5134159;27;20066;-64
2021/09/28 04:00:02;;;;;;;5.68;1.30;;;;;;;;;;5134269;27;20019;-64
2021/09/28 04:02:28;;;;;;;11.75;1.15;;;;;;;;;;5133979;27;20027;-64
2021/09/28 04:04:54;;;;;;;6.05;1.08;;;;;;;;;;5115375;27;20023;-64
2021/09/28 04:07:20;;;;;;;3.35;1.00;;;;;;;;;;5092159;27;20453;-64
2021/09/28 04:09:46;;;;;;;4.38;1.10;;;;;;;;;;5010415;28;20022;-64
2021/09/28 04:12:14;;;;;;;9.55;1.17;;;;;;;;;;5010320;28;20029;-63
2021/09/28 04:14:40;;;;;;;9.13;1.48;;;;;;;;;;5010321;28;20018;-63
2021/09/28 04:17:06;;;;;;;5.05;1.40;;;;;;;;;;5010446;28;20725;-63
2021/09/28 04:19:32;;;;;;;8.48;1.40;;;;;;;;;;5010478;28;20054;-63
2021/09/28 04:21:58;;;;;;;5.72;1.30;;;;;;;;;;5077693;28;20030;-63
2021/09/28 04:24:24;;;;;;;6.05;1.40;;;;;;;;;;5010121;28;20033;-63
2021/09/28 04:26:50;;;;;;;10.85;1.50;;;;;;;;;;5009884;28;20050;-63
2021/09/28 04:29:16;;;;;;;4.03;1.55;;;;;;;;;;5010405;28;20074;-63
2021/09/28 04:31:42;;;;;;;4.82;1.30;;;;;;;;;;5060982;28;20096;-63
2021/09/28 04:34:08;;;;;;;4.10;1.27;;;;;;;;;;5009920;28;20462;-63
2021/09/28 04:36:34;;;;;;;6.53;1.38;;;;;;;;;;5014859;28;20116;-63
2021/09/28 04:39:00;;;;;;;8.10;1.08;;;;;;;;;;5029801;28;20026;-63
2021/09/28 04:41:25;;;;;;;5.13;1.27;;;;;;;;;;5100146;28;20027;-63
2021/09/28 04:43:52;;;;;;;7.97;1.20;;;;;;;;;;5133656;28;20108;-62
2021/09/28 04:46:18;;;;;;;4.47;1.17;;;;;;;;;;5115284;28;20030;-62
2021/09/28 04:48:45;;;;;;;3.72;1.10;;;;;;;;;;5133563;27;20019;-61
2021/09/28 04:51:11;;;;;;;6.65;1.30;;;;;;;;;;5133541;28;20118;-63
2021/09/28 04:53:38;;;;;;;5.95;1.10;;;;;;;;;;5133356;28;20088;-62
2021/09/28 04:56:04;;;;;;;13.40;1.33;;;;;;;;;;5133311;28;20102;-62
2021/09/28 04:58:30;;;;;;;7.53;1.08;;;;;;;;;;5133307;28;20076;-62
2021/09/28 05:00:56;;;;;;;10.57;1.38;;;;;;;;;;5133534;28;20019;-62
2021/09/28 05:03:23;;;;;;;20.35;1.40;;;;;;;;;;5114746;28;20490;-62
2021/09/28 05:05:50;;;;;;;14.10;1.45;;;;;;;;;;5066039;28;20025;-62
2021/09/28 05:08:16;;;;;;;13.48;1.40;;;;;;;;;;5028213;28;20108;-62
2021/09/28 05:10:42;;;;;;;3.63;1.30;;;;;;;;;;5097342;28;20053;-62
2021/09/28 05:13:09;;;;;;;6.70;1.30;;;;;;;;;;5097242;28;20042;-63
2021/09/28 05:15:35;;;;;;;12.05;1.50;;;;;;;;;;5029336;28;20108;-61
2021/09/28 05:18:01;;;;;;;8.18;1.40;;;;;;;;;;5117349;27;20027;-61
2021/09/28 05:20:28;;;;;;;5.95;1.17;;;;;;;;;;5102329;27;20048;-63
2021/09/28 05:22:54;;;;;;;10.02;1.70;;;;;;;;;;5134532;27;20023;-60
2021/09/28 05:25:19;;;;;;;13.32;1.73;;;;;;;;;;5091781;28;20097;-63
2021/09/28 05:27:45;;;;;;;13.02;1.80;;;;;;;;;;5023982;27;20040;-64
2021/09/28 05:30:12;;;;;;;12.00;1.45;;;;;;;;;;5057769;27;20023;-63
2021/09/28 05:32:38;;;;;;;9.50;1.95;;;;;;;;;;5075486;27;20042;-63
2021/09/28 05:35:04;;;;;;;8.15;1.42;;;;;;;;;;5089680;27;20496;-62
2021/09/28 05:37:30;;;;;;;8.10;1.63;;;;;;;;;;5075135;27;20058;-63
2021/09/28 05:39:56;;;;;;;12.73;1.98;;;;;;;;;;5078187;27;20041;-63
2021/09/28 05:42:22;;;;;;;8.75;1.80;;;;;;;;;;5089858;27;20461;-62
2021/09/28 05:44:48;;;;;;;12.45;1.60;;;;;;;;;;5091690;27;20106;-63
2021/09/28 05:47:14;;;;;;;9.27;1.50;;;;;;;;;;5078732;27;20074;-63
2021/09/28 05:49:40;;;;;;;11.32;1.70;;;;;;;;;;5106252;27;20098;-63
2021/09/28 05:52:08;;;;;;;15.95;1.95;;;;;;;;;;5091306;27;20422;-61
2021/09/28 05:54:39;;;;;;;13.65;2.10;;;;;;;;;;5089609;27;20381;-61
2021/09/28 05:57:06;;;;;;;7.72;1.40;;;;;;;;;;5102726;27;20029;-62
2021/09/28 05:59:33;;;;;;;7.25;1.42;;;;;;;;;;5082191;27;20485;-61
2021/09/28 06:01:59;;;;;;;10.07;1.50;;;;;;;;;;5089329;27;20019;-60
2021/09/28 06:04:25;;;;;;;16.63;1.75;;;;;;;;;;5079680;27;20484;-59
2021/09/28 06:06:51;;;;;;;18.75;1.73;;;;;;;;;;5117612;27;20042;-61
2021/09/28 06:09:17;;;;;;;7.43;1.63;;;;;;;;;;5106582;27;20023;-59
2021/09/28 06:11:44;;;;;;;11.57;1.60;;;;;;;;;;5136313;27;20034;-61
2021/09/28 06:14:10;;;;;;;21.52;2.25;;;;;;;;;;5099920;28;20464;-63
2021/09/28 06:16:36;;;;;;;9.68;1.60;;;;;;;;;;5100356;28;20410;-63
2021/09/28 06:19:02;;;;;;;13.30;1.83;;;;;;;;;;5031692;28;20033;-65
2021/09/28 06:21:28;;;;;;;9.75;1.75;;;;;;;;;;5103309;28;20029;-63
2021/09/28 06:23:54;;;;;;;11.70;2.35;;;;;;;;;;5109496;27;20462;-62
2021/09/28 06:26:21;;;;;;;9.68;1.67;;;;;;;;;;5086385;27;20045;-62
2021/09/28 06:28:47;;;;;;;10.73;1.92;;;;;;;;;;5074715;27;20027;-63
2021/09/28 06:31:13;;;;;;;11.63;1.90;;;;;;;;;;5088838;27;20029;-61
2021/09/28 06:33:39;;;;;;;11.50;2.13;;;;;;;;;;5085431;27;20037;-60
2021/09/28 06:36:05;;;;;;;12.57;1.75;;;;;;;;;;5062831;27;20112;-60
2021/09/28 06:38:31;;;;;;;16.25;1.70;;;;;;;;;;5031538;28;20237;-63
2021/09/28 06:40:58;;;;;;;16.52;2.08;;;;;;;;;;5081828;27;20373;-61
2021/09/28 06:43:24;;;;;;;11.05;2.10;;;;;;;;;;5131704;27;20019;-60
2021/09/28 06:45:50;;;;;;;13.65;1.83;;;;;;;;;;5088458;27;20075;-60
2021/09/28 06:48:18;;;;;;;13.77;2.45;;;;;;;;;;5116771;27;20027;-60
2021/09/28 06:50:44;;;;;;;15.85;2.20;;;;;;;;;;5135601;27;20019;-61
2021/09/28 06:53:10;;;;;;;10.60;1.98;;;;;;;;;;5135146;27;20047;-61
2021/09/28 06:55:37;;;;;;;24.27;2.35;;;;;;;;;;5116824;27;20096;-61
2021/09/28 06:58:04;;;;;;;13.98;1.80;;;;;;;;;;5116951;27;20359;-63
2021/09/28 07:00:31;;;;;;;18.95;2.50;;;;;;;;;;5135368;27;20019;-63
2021/09/28 07:02:57;;;;;;;20.30;2.20;;;;;;;;;;5135431;27;20020;-62
2021/09/28 07:05:23;;;;;;;18.98;1.90;;;;;;;;;;5135157;27;20065;-61
2021/09/28 07:07:49;;;;;;;23.02;2.55;;;;;;;;;;5135082;27;20027;-61
2021/09/28 07:10:15;;;;;;;25.30;2.50;;;;;;;;;;5116754;27;20518;-63
2021/09/28 07:12:41;;;;;;;37.03;2.50;;;;;;;;;;5098844;27;20041;-61
2021/09/28 07:15:08;;;;;;;37.15;3.30;;;;;;;;;;5011430;28;20030;-62
2021/09/28 07:17:34;;;;;;;44.35;3.03;;;;;;;;;;5011240;28;20041;-62
2021/09/28 07:20:02;;;;;;;24.23;2.35;;;;;;;;;;5031335;27;20019;-61
2021/09/28 07:22:28;;;;;;;50.85;3.05;;;;;;;;;;5071593;27;20110;-60
2021/09/28 07:24:55;;;;;;;51.50;3.45;;;;;;;;;;5079870;27;20137;-61
2021/09/28 07:27:22;;;;;;;32.08;3.13;;;;;;;;;;5045767;27;20040;-61
2021/09/28 07:29:48;;;;;;;32.58;2.80;;;;;;;;;;5013205;28;20049;-61
2021/09/28 07:32:15;;;;;;;26.27;2.72;;;;;;;;;;5011102;28;20446;-61
2021/09/28 07:34:42;;;;;;;22.58;2.88;;;;;;;;;;5010963;28;20041;-62
2021/09/28 07:37:08;;;;;;;26.05;2.58;;;;;;;;;;5078393;28;20106;-60
2021/09/28 07:39:34;;;;;;;29.45;2.53;;;;;;;;;;5078128;28;20060;-60
2021/09/28 07:42:00;;;;;;;19.25;2.22;;;;;;;;;;5123588;27;20023;-60
2021/09/28 07:44:26;;;;;;;16.98;1.95;;;;;;;;;;5119224;27;20029;-61
2021/09/28 07:46:53;;;;;;;20.98;2.08;;;;;;;;;;5055874;27;20121;-62
2021/09/28 07:49:19;;;;;;;14.70;2.00;;;;;;;;;;5096096;27;20336;-62
2021/09/28 07:51:45;;;;;;;9.73;2.30;;;;;;;;;;5074245;27;20464;-62
2021/09/28 07:54:11;;;;;;;9.75;2.15;;;;;;;;;;5030370;28;20508;-60
2021/09/28 07:56:37;;;;;;;7.03;1.77;;;;;;;;;;5098704;28;20026;-61
2021/09/28 07:59:07;;;;;;;9.95;1.63;;;;;;;;;;5030359;28;20025;-60
2021/09/28 08:01:33;;;;;;;14.20;2.35;;;;;;;;;;5011156;28;20097;-60
2021/09/28 08:03:59;;;;;;;11.95;2.33;;;;;;;;;;5078188;28;20530;-61
2021/09/28 08:06:25;;;;;;;15.20;2.10;;;;;;;;;;5010515;28;20034;-60
2021/09/28 08:08:51;;;;;;;6.95;1.67;;;;;;;;;;5049586;27;20038;-60
2021/09/28 08:11:17;;;;;;;9.45;1.92;;;;;;;;;;5115645;27;20023;-60
2021/09/28 08:13:44;;;;;;;13.82;2.10;;;;;;;;;;5134197;27;20105;-61
2021/09/28 08:16:10;;;;;;;11.05;2.00;;;;;;;;;;5110667;27;20022;-60
2021/09/28 08:18:36;;;;;;;15.77;1.80;;;;;;;;;;5010471;28;20026;-60
2021/09/28 08:21:02;;;;;;;9.93;1.48;;;;;;;;;;5010094;28;20029;-61
2021/09/28 08:23:29;;;;;;;11.55;1.73;;;;;;;;;;5078014;28;20086;-61
2021/09/28 08:31:07;;;;;;;6.32;1.85;;;;;;;;;;5009923;28;20092;-60
2021/09/28 08:33:34;;;;;;;10.07;2.10;;;;;;;;;;5009960;28;20052;-60
2021/09/28 08:36:01;;;;;;;13.20;1.95;;;;;;;;;;5081828;27;20025;-60
2021/09/28 08:38:28;;;;;;;7.75;1.63;;;;;;;;;;5088223;27;20032;-60
2021/09/28 08:40:54;;;;;;;20.80;2.30;;;;;;;;;;5063025;28;20070;-60
2021/09/28 08:43:20;;;;;;;8.13;1.83;;;;;;;;;;5104805;28;20023;-60
2021/09/28 08:45:46;;;;;;;15.13;1.90;;;;;;;;;;5075800;28;20022;-60
2021/09/28 08:48:13;;;;;;;12.65;1.73;;;;;;;;;;5073948;28;20082;-61
2021/09/28 08:50:40;;;;;;;11.32;2.13;;;;;;;;;;5090950;28;20047;-60
2021/09/28 08:53:10;;;;;;;7.60;1.67;;;;;;;;;;5106962;27;20072;-60
2021/09/28 08:55:37;;;;;;;10.10;2.10;;;;;;;;;;5055499;27;20083;-60
2021/09/28 08:58:20;;;;;;;14.90;1.92;;;;;;;;;;5051792;27;20029;-61
2021/09/28 09:00:47;;;;;;;11.32;1.98;;;;;;;;;;5088252;27;20027;-60
2021/09/28 09:03:33;;;;;;;10.77;1.48;;;;;;;;;;5086620;27;20025;-62
2021/09/28 09:06:00;;;;;;;13.30;1.92;;;;;;;;;;5112447;27;20034;-62
2021/09/28 09:08:28;;;;;;;14.30;2.03;;;;;;;;;;5119182;27;20638;-60
2021/09/28 09:11:08;;;;;;;9.35;1.85;;;;;;;;;;5137500;27;20027;-60
2021/09/28 09:13:33;;;;;;;14.48;1.83;;;;;;;;;;5137476;27;20027;-60
2021/09/28 09:15:59;;;;;;;14.15;1.80;;;;;;;;;;5116565;27;20478;-61
2021/09/28 09:18:25;;;;;;;157.23;10.15;;;;;;;;;;5032515;28;20525;-60
2021/09/28 09:20:51;;;;;;;69.53;4.35;;;;;;;;;;5033324;28;20026;-60
2021/09/28 09:23:22;;;;;;;38.90;2.92;;;;;;;;;;5101004;28;20021;-60
2021/09/28 09:25:58;;;;;;;32.72;2.72;;;;;;;;;;5089576;27;20050;-60
2021/09/28 09:28:33;;;;;;;31.63;2.60;;;;;;;;;;5075692;27;20014;-59
2021/09/28 09:31:11;;;;;;;17.67;1.63;;;;;;;;;;5082252;27;20022;-59
2021/09/28 09:33:38;;;;;;;16.67;2.00;;;;;;;;;;5113623;27;20083;-60
2021/09/28 09:36:04;;;;;;;28.98;2.10;;;;;;;;;;5137170;27;20023;-60
2021/09/28 09:38:30;;;;;;;24.60;2.40;;;;;;;;;;5136779;27;20091;-59
2021/09/28 09:40:56;;;;;;;11.63;1.75;;;;;;;;;;5087319;27;20040;-60
2021/09/28 09:43:32;;;;;;;16.35;2.10;;;;;;;;;;5032238;28;20403;-60
2021/09/28 09:46:18;;;;;;;17.38;2.25;;;;;;;;;;5043327;27;20041;-60
2021/09/28 09:48:45;;;;;;;19.02;2.58;;;;;;;;;;5118154;27;20471;-60
2021/09/28 09:51:13;;;;;;;9.00;1.60;;;;;;;;;;5107351;27;20035;-60
2021/09/28 09:53:52;;;;;;;10.35;1.80;;;;;;;;;;5079119;27;20039;-59
2021/09/28 09:56:19;;;;;;;13.88;2.25;;;;;;;;;;5117991;27;20019;-60
2021/09/28 09:58:45;;;;;;;11.23;1.95;;;;;;;;;;5136805;27;20046;-60
2021/09/28 10:01:11;;;;;;;16.17;1.83;;;;;;;;;;5136454;27;20023;-60
2021/09/28 10:03:38;;;;;;;14.57;2.38;;;;;;;;;;5079383;27;20108;-60
2021/09/28 10:06:08;;;;;;;11.30;1.80;;;;;;;;;;5012233;28;20018;-61
2021/09/28 10:08:34;;;;;;;15.30;2.05;;;;;;;;;;5054320;27;20076;-59
2021/09/28 10:11:01;;;;;;;10.52;1.80;;;;;;;;;;5088684;27;20070;-60
2021/09/28 10:13:45;;;;;;;14.38;2.08;;;;;;;;;;5103220;27;20488;-60
2021/09/28 10:16:30;;;;;;;8.32;1.73;;;;;;;;;;5060462;27;20033;-59
2021/09/28 10:18:56;;;;;;;14.23;1.77;;;;;;;;;;5094740;27;20151;-60
2021/09/28 10:21:44;;;;;;;12.40;2.45;;;;;;;;;;5059765;27;20033;-60
2021/09/28 10:24:19;;;;;;;11.48;1.77;;;;;;;;;;5110767;27;20026;-59
2021/09/28 10:26:46;;;;;;;11.95;2.25;;;;;;;;;;5110161;28;20044;-60
2021/09/28 10:29:30;;;;;;;22.33;2.85;;;;;;;;;;5114652;28;20101;-60
2021/09/28 10:31:56;;;;;;;15.75;2.60;;;;;;;;;;5114970;28;20019;-59
2021/09/28 10:34:22;;;;;;;12.35;1.83;;;;;;;;;;5115129;28;20539;-61
2021/09/28 10:36:52;;;;;;;15.18;2.65;;;;;;;;;;5114711;28;20031;-60
2021/09/28 10:39:37;;;;;;;14.93;1.90;;;;;;;;;;5109613;28;20015;-58
2021/09/28 10:42:03;;;;;;;14.88;2.20;;;;;;;;;;5113578;28;20027;-59
2021/09/28 10:44:34;;;;;;;10.18;1.63;;;;;;;;;;5115205;28;20122;-59
2021/09/28 10:47:00;;;;;;;8.10;1.80;;;;;;;;;;5115086;28;20069;-59
2021/09/28 10:49:26;;;;;;;15.32;2.80;;;;;;;;;;5114970;28;20107;-59
2021/09/28 10:51:56;;;;;;;19.58;2.40;;;;;;;;;;5113857;27;20046;-58
2021/09/28 10:54:22;;;;;;;13.02;2.25;;;;;;;;;;5115097;28;20046;-59
2021/09/28 10:56:51;;;;;;;14.70;1.95;;;;;;;;;;5114716;28;20027;-59
2021/09/28 10:59:17;;;;;;;16.40;2.40;;;;;;;;;;5111919;28;20066;-62
2021/09/28 11:02:03;;;;;;;12.07;2.50;;;;;;;;;;5114405;28;20059;-59
2021/09/28 11:04:29;;;;;;;9.10;1.88;;;;;;;;;;5113746;28;20031;-59
2021/09/28 11:06:56;;;;;;;11.18;2.03;;;;;;;;;;5114069;28;20027;-58
2021/09/28 11:09:23;;;;;;;13.45;1.90;;;;;;;;;;5114080;28;20027;-59
2021/09/28 11:11:50;;;;;;;11.68;2.00;;;;;;;;;;5112626;28;20422;-59
2021/09/28 11:14:17;;;;;;;9.52;1.77;;;;;;;;;;5114059;28;20030;-59
2021/09/28 11:16:44;;;;;;;13.13;1.73;;;;;;;;;;5112894;28;20068;-59
2021/09/28 11:19:10;;;;;;;11.30;2.00;;;;;;;;;;5112871;28;20024;-59
2021/09/28 11:21:40;;;;;;;10.32;1.83;;;;;;;;;;5113997;28;20073;-61
2021/09/28 11:24:06;;;;;;;6.80;1.60;;;;;;;;;;5114201;28;20499;-59
2021/09/28 11:26:37;;;;;;;12.10;1.92;;;;;;;;;;5112495;28;20048;-58
2021/09/28 11:29:03;;;;;;;10.27;1.50;;;;;;;;;;5114093;28;20368;-59
2021/09/28 11:31:33;;;;;;;10.25;1.95;;;;;;;;;;5113645;28;20493;-59
2021/09/28 11:34:00;;;;;;;9.70;2.30;;;;;;;;;;5113011;28;20023;-59
2021/09/28 11:36:30;;;;;;;12.25;2.22;;;;;;;;;;5114030;28;20022;-58
2021/09/28 11:38:56;;;;;;;9.18;1.67;;;;;;;;;;5114421;28;20042;-59
2021/09/28 11:41:22;;;;;;;7.15;1.58;;;;;;;;;;5113903;28;20502;-59
2021/09/28 11:43:53;;;;;;;7.57;1.73;;;;;;;;;;5114120;28;20030;-58
2021/09/28 11:46:20;;;;;;;9.70;1.77;;;;;;;;;;5113823;28;20463;-58
2021/09/28 11:48:57;;;;;;;7.03;1.38;;;;;;;;;;5113723;28;20028;-58
2021/09/28 11:51:25;;;;;;;6.75;1.35;;;;;;;;;;5113262;28;20057;-58
2021/09/28 11:53:52;;;;;;;4.88;1.17;;;;;;;;;;5113837;28;20066;-58
2021/09/28 11:56:19;;;;;;;9.82;1.40;;;;;;;;;;5113817;28;20026;-58
2021/09/28 11:58:46;;;;;;;5.88;1.40;;;;;;;;;;5113389;28;20023;-58
2021/09/28 12:01:13;;;;;;;7.40;1.33;;;;;;;;;;5112378;28;20023;-61
2021/09/28 12:04:01;;;;;;;7.88;1.63;;;;;;;;;;5113971;28;20062;-59
2021/09/28 12:06:35;;;;;;;7.45;1.58;;;;;;;;;;5113570;28;20058;-61
2021/09/28 12:09:01;;;;;;;7.97;1.35;;;;;;;;;;5112499;28;20031;-59
2021/09/28 12:11:33;;;;;;;9.95;1.52;;;;;;;;;;5113408;28;20032;-58
2021/09/28 12:13:59;;;;;;;4.68;1.10;;;;;;;;;;5114042;28;20027;-58
2021/09/28 12:16:25;;;;;;;9.23;1.45;;;;;;;;;;5113477;28;20093;-60
2021/09/28 12:19:05;;;;;;;9.40;1.38;;;;;;;;;;5104440;28;20023;-60
2021/09/28 12:21:31;;;;;;;12.82;1.90;;;;;;;;;;5113189;28;20012;-59
2021/09/28 12:24:10;;;;;;;13.00;1.35;;;;;;;;;;5113586;28;20028;-60
2021/09/28 12:26:36;;;;;;;7.38;1.90;;;;;;;;;;5092348;27;20056;-59
2021/09/28 12:29:10;;;;;;;12.40;1.33;;;;;;;;;;5077923;28;20059;-58
2021/09/28 12:31:37;;;;;;;13.88;1.60;;;;;;;;;;5010070;28;20022;-59
2021/09/28 12:34:04;;;;;;;8.48;1.25;;;;;;;;;;5086131;27;20104;-59
2021/09/28 12:36:29;;;;;;;11.57;1.70;;;;;;;;;;5090374;27;20013;-59
2021/09/28 12:39:14;;;;;;;9.85;1.40;;;;;;;;;;5133103;27;20039;-59
2021/09/28 12:42:09;;;;;;;8.25;1.67;;;;;;;;;;5094774;28;20033;-62
2021/09/28 12:44:37;;;;;;;13.35;1.52;;;;;;;;;;5034026;28;20121;-62
2021/09/28 12:47:22;;;;;;;19.08;1.60;;;;;;;;;;5098011;28;20032;-60
2021/09/28 12:49:48;;;;;;;7.97;1.17;;;;;;;;;;5029563;28;20026;-59
2021/09/28 12:52:14;;;;;;;13.68;1.40;;;;;;;;;;5091651;28;20033;-61
2021/09/28 12:54:40;;;;;;;11.48;1.45;;;;;;;;;;5044427;28;20355;-61
2021/09/28 12:57:06;;;;;;;12.70;1.80;;;;;;;;;;5046861;28;20029;-60
2021/09/28 12:59:32;;;;;;;13.93;1.77;;;;;;;;;;5037832;28;20136;-60
2021/09/28 13:01:57;;;;;;;10.82;1.20;;;;;;;;;;5030626;28;20034;-61
2021/09/28 13:04:23;;;;;;;10.63;1.63;;;;;;;;;;5029350;28;20026;-60
2021/09/28 13:06:55;;;;;;;16.35;1.67;;;;;;;;;;5010261;28;20034;-60
2021/09/28 13:09:21;;;;;;;11.20;1.38;;;;;;;;;;5010026;28;20506;-62
2021/09/28 13:11:47;;;;;;;12.25;1.50;;;;;;;;;;5014093;28;20041;-59
2021/09/28 13:14:13;;;;;;;11.38;1.85;;;;;;;;;;5018386;28;20460;-59
2021/09/28 13:16:39;;;;;;;7.63;1.40;;;;;;;;;;5097898;28;20036;-59
2021/09/28 13:19:05;;;;;;;14.20;1.25;;;;;;;;;;5024382;28;20473;-58
2021/09/28 13:21:31;;;;;;;15.40;1.80;;;;;;;;;;5026148;28;20065;-58
2021/09/28 13:23:58;;;;;;;9.90;1.70;;;;;;;;;;5097828;28;20054;-58
2021/09/28 13:26:24;;;;;;;11.75;1.42;;;;;;;;;;5030903;28;20553;-59
2021/09/28 13:28:50;;;;;;;24.73;1.98;;;;;;;;;;5018701;28;20112;-58
2021/09/28 13:31:16;;;;;;;14.70;2.00;;;;;;;;;;5028743;28;20473;-59
2021/09/28 13:33:42;;;;;;;16.85;2.47;;;;;;;;;;5029092;28;20061;-59
2021/09/28 13:36:21;;;;;;;12.15;2.35;;;;;;;;;;5029187;28;20488;-61
2021/09/28 13:38:47;;;;;;;13.35;2.00;;;;;;;;;;5031124;28;20339;-60
2021/09/28 13:41:13;;;;;;;9.98;2.03;;;;;;;;;;5093427;27;20033;-60
2021/09/28 13:43:39;;;;;;;20.08;2.58;;;;;;;;;;5136920;27;20363;-60
2021/09/28 13:46:06;;;;;;;12.38;2.60;;;;;;;;;;5085464;27;20481;-60
2021/09/28 13:48:32;;;;;;;13.90;2.30;;;;;;;;;;5032327;28;20021;-60
2021/09/28 13:50:58;;;;;;;9.13;2.17;;;;;;;;;;5063893;27;20027;-60
2021/09/28 13:53:24;;;;;;;8.70;2.05;;;;;;;;;;5136556;27;20030;-60
2021/09/28 13:55:50;;;;;;;12.48;1.92;;;;;;;;;;5136597;27;20374;-60
2021/09/28 13:58:15;;;;;;;11.15;1.77;;;;;;;;;;5136686;27;20050;-60
2021/09/28 14:00:42;;;;;;;13.35;1.73;;;;;;;;;;5136896;27;20023;-60
2021/09/28 14:03:08;;;;;;;11.70;1.77;;;;;;;;;;5136681;27;20019;-60
2021/09/28 14:05:34;;;;;;;7.97;1.52;;;;;;;;;;5136617;27;20115;-60
2021/09/28 14:08:01;;;;;;;13.80;2.05;;;;;;;;;;5136674;27;20023;-60
2021/09/28 14:10:27;;;;;;;9.00;1.55;;;;;;;;;;5136329;27;20031;-60
2021/09/28 14:12:54;;;;;;;6.43;1.42;;;;;;;;;;5136581;27;20040;-61
2021/09/28 14:15:20;;;;;;;10.38;1.60;;;;;;;;;;5136398;27;20028;-60
2021/09/28 14:17:46;;;;;;;10.25;1.33;;;;;;;;;;5136232;27;20149;-60
2021/09/28 14:20:12;;;;;;;8.02;1.38;;;;;;;;;;5016171;27;20480;-60
2021/09/28 14:22:38;;;;;;;6.72;1.33;;;;;;;;;;5012086;28;20522;-60
2021/09/28 14:25:05;;;;;;;4.72;1.23;;;;;;;;;;5079830;28;20104;-61
2021/09/28 14:27:31;;;;;;;9.50;1.67;;;;;;;;;;5012166;28;20053;-60
2021/09/28 14:29:57;;;;;;;10.57;1.50;;;;;;;;;;5012035;28;20026;-60
2021/09/28 14:32:23;;;;;;;10.15;1.15;;;;;;;;;;5079716;28;20142;-60
2021/09/28 14:34:49;;;;;;;10.73;1.50;;;;;;;;;;5079738;28;20026;-60
2021/09/28 14:37:16;;;;;;;5.90;1.17;;;;;;;;;;5025125;28;20537;-60
2021/09/28 14:39:42;;;;;;;6.22;1.20;;;;;;;;;;5031510;28;20021;-60
2021/09/28 14:42:08;;;;;;;7.47;1.30;;;;;;;;;;5132310;27;20019;-60